Time;durP1;ratioP1;P1;durP2;ratioP2;P2;SDS_P1;SDS_P2;PMS_P1;PMS_P2;Temp;Humidity;BMP_temperature;BMP_pressure;BME280_temperature;BME280_humidity;BME280_pressure;Samples;Min_cycle;Max_cycle;Signal;HPM_P1;HPM_P2
2022/05/12 00:00:18;;;;;;;2.38;0.93;;;;;;;;;;4404088;29;20040;-69
2022/05/12 00:02:29;;;;;;;1.48;0.95;;;;;;;;;;4404200;29;20048;-70
2022/05/12 00:04:39;;;;;;;1.30;0.97;;;;;;;;;;4403951;28;20719;-70
2022/05/12 00:06:50;;;;;;;2.07;1.03;;;;;;;;;;4405071;29;20041;-70
2022/05/12 00:09:00;;;;;;;3.33;0.90;;;;;;;;;;4419374;28;20071;-70
2022/05/12 00:11:11;;;;;;;2.50;1.20;;;;;;;;;;4406159;29;20040;-70
2022/05/12 00:13:21;;;;;;;1.47;0.80;;;;;;;;;;4405411;29;20052;-70
2022/05/12 00:15:33;;;;;;;2.50;0.93;;;;;;;;;;4405112;29;20060;-70
2022/05/12 00:17:44;;;;;;;1.25;0.85;;;;;;;;;;4404030;29;20159;-70
2022/05/12 00:19:55;;;;;;;2.30;1.08;;;;;;;;;;4405547;29;20027;-70
2022/05/12 00:22:05;;;;;;;2.07;0.90;;;;;;;;;;4418849;28;20111;-70
2022/05/12 00:24:16;;;;;;;1.83;0.90;;;;;;;;;;4405991;29;20076;-70
2022/05/12 00:26:29;;;;;;;1.93;0.90;;;;;;;;;;4404713;28;20062;-69
2022/05/12 00:28:40;;;;;;;2.60;1.08;;;;;;;;;;4404984;29;20265;-70
2022/05/12 00:30:52;;;;;;;2.57;1.20;;;;;;;;;;4403728;29;20405;-70
2022/05/12 00:33:03;;;;;;;1.67;0.93;;;;;;;;;;4403471;29;20601;-70
2022/05/12 00:35:16;;;;;;;1.25;0.88;;;;;;;;;;4413353;29;20044;-70
2022/05/12 00:37:27;;;;;;;3.03;1.17;;;;;;;;;;4405768;29;20710;-70
2022/05/12 00:39:37;;;;;;;1.93;1.20;;;;;;;;;;4405027;29;42731;-70
2022/05/12 00:41:48;;;;;;;2.60;1.17;;;;;;;;;;4404006;28;20096;-70
2022/05/12 00:44:02;;;;;;;1.90;1.10;;;;;;;;;;4404062;29;20036;-70
2022/05/12 00:46:16;;;;;;;1.55;1.10;;;;;;;;;;4402941;28;20040;-70
2022/05/12 00:48:27;;;;;;;1.48;0.90;;;;;;;;;;4404433;29;20060;-70
2022/05/12 00:50:39;;;;;;;2.23;1.20;;;;;;;;;;4403540;29;34051;-70
2022/05/12 00:52:50;;;;;;;2.42;1.38;;;;;;;;;;4403170;29;20036;-70
2022/05/12 00:55:02;;;;;;;2.87;1.40;;;;;;;;;;4404659;29;20527;-71
2022/05/12 00:57:17;;;;;;;2.58;1.30;;;;;;;;;;4404953;29;20033;-70
2022/05/12 00:59:30;;;;;;;2.45;1.30;;;;;;;;;;4405771;29;20072;-70
2022/05/12 01:01:41;;;;;;;1.73;1.30;;;;;;;;;;4404716;28;20889;-70
2022/05/12 01:03:52;;;;;;;2.87;1.40;;;;;;;;;;4405229;29;25056;-71
2022/05/12 01:06:03;;;;;;;2.33;1.55;;;;;;;;;;4404444;29;20041;-71
2022/05/12 01:08:15;;;;;;;4.82;1.83;;;;;;;;;;4406970;29;20037;-71
2022/05/12 01:10:26;;;;;;;1.90;1.40;;;;;;;;;;4394967;29;20036;-71
2022/05/12 01:12:42;;;;;;;1.87;1.37;;;;;;;;;;4404447;29;20032;-71
2022/05/12 01:14:52;;;;;;;4.32;1.67;;;;;;;;;;4411310;29;20776;-71
2022/05/12 01:17:03;;;;;;;2.27;1.50;;;;;;;;;;4405182;29;20492;-71
2022/05/12 01:19:34;;;;;;;2.65;1.50;;;;;;;;;;4406011;29;20261;-71
2022/05/12 01:21:46;;;;;;;3.63;1.90;;;;;;;;;;4418120;28;20096;-71
2022/05/12 01:23:57;;;;;;;3.22;1.73;;;;;;;;;;4412555;29;20036;-71
2022/05/12 01:26:10;;;;;;;2.57;1.60;;;;;;;;;;4404511;29;20504;-71
2022/05/12 01:28:21;;;;;;;3.15;1.70;;;;;;;;;;4404380;28;20603;-72
2022/05/12 01:30:31;;;;;;;2.97;1.50;;;;;;;;;;4405414;28;20068;-71
2022/05/12 01:32:46;;;;;;;2.23;1.43;;;;;;;;;;4403534;29;20036;-71
2022/05/12 01:34:57;;;;;;;2.55;1.50;;;;;;;;;;4408517;29;20135;-72
2022/05/12 01:37:08;;;;;;;2.90;1.43;;;;;;;;;;4401952;29;20482;-71
2022/05/12 01:39:18;;;;;;;2.53;1.30;;;;;;;;;;4404276;29;20687;-71
2022/05/12 01:41:28;;;;;;;2.10;1.30;;;;;;;;;;4402820;29;20139;-71
2022/05/12 01:43:39;;;;;;;2.67;1.20;;;;;;;;;;4403409;29;20100;-71
2022/05/12 01:45:49;;;;;;;1.57;1.13;;;;;;;;;;4404986;28;20051;-71
2022/05/12 01:48:00;;;;;;;2.20;1.10;;;;;;;;;;4402463;29;38488;-71
2022/05/12 01:50:11;;;;;;;3.13;1.00;;;;;;;;;;4405914;29;20040;-71
2022/05/12 01:52:21;;;;;;;1.40;0.70;;;;;;;;;;4402934;29;20028;-71
2022/05/12 01:54:32;;;;;;;2.03;0.80;;;;;;;;;;4403845;28;20044;-71
2022/05/12 01:56:42;;;;;;;1.50;0.73;;;;;;;;;;4404496;29;20536;-71
2022/05/12 01:58:53;;;;;;;2.33;0.93;;;;;;;;;;4403231;29;40797;-71
2022/05/12 02:01:04;;;;;;;1.40;0.70;;;;;;;;;;4403752;29;20099;-71
2022/05/12 02:03:14;;;;;;;2.50;0.60;;;;;;;;;;4403123;29;20341;-71
2022/05/12 02:05:25;;;;;;;1.33;0.73;;;;;;;;;;4403963;29;20549;-71
2022/05/12 02:07:40;;;;;;;1.37;0.73;;;;;;;;;;4402535;29;34753;-71
2022/05/12 02:09:50;;;;;;;1.38;0.70;;;;;;;;;;4405781;29;20176;-70
2022/05/12 02:12:01;;;;;;;1.40;0.80;;;;;;;;;;4404856;29;20649;-71
2022/05/12 02:14:12;;;;;;;0.93;0.70;;;;;;;;;;4404211;29;20219;-71
2022/05/12 02:16:24;;;;;;;2.15;0.80;;;;;;;;;;4405877;29;20046;-71
2022/05/12 02:18:35;;;;;;;2.05;0.70;;;;;;;;;;4402710;29;20048;-71
2022/05/12 02:20:46;;;;;;;1.50;0.80;;;;;;;;;;4404466;29;20041;-71
2022/05/12 02:22:56;;;;;;;0.80;0.50;;;;;;;;;;4402421;29;20943;-72
2022/05/12 02:25:07;;;;;;;1.20;0.60;;;;;;;;;;4386190;29;20273;-71
2022/05/12 02:27:18;;;;;;;1.40;0.77;;;;;;;;;;4412237;29;20572;-71
2022/05/12 02:29:28;;;;;;;1.77;0.60;;;;;;;;;;4407093;28;21438;-71
2022/05/12 02:31:39;;;;;;;2.00;0.60;;;;;;;;;;4407406;29;20028;-72
2022/05/12 02:33:49;;;;;;;3.03;0.90;;;;;;;;;;4406257;29;20040;-70
2022/05/12 02:36:02;;;;;;;0.83;0.67;;;;;;;;;;4406128;28;20043;-71
2022/05/12 02:38:12;;;;;;;2.15;0.82;;;;;;;;;;4407322;29;20032;-71
2022/05/12 02:40:25;;;;;;;1.80;0.60;;;;;;;;;;4405012;29;20041;-72
2022/05/12 02:42:36;;;;;;;1.77;0.70;;;;;;;;;;4398420;29;20148;-71
2022/05/12 02:44:46;;;;;;;1.37;0.87;;;;;;;;;;4407646;28;20043;-71
2022/05/12 02:46:57;;;;;;;1.10;0.60;;;;;;;;;;4404675;29;20056;-71
2022/05/12 02:49:09;;;;;;;1.03;0.60;;;;;;;;;;4405556;29;20105;-71
2022/05/12 02:51:19;;;;;;;1.10;0.60;;;;;;;;;;4406823;29;20033;-71
2022/05/12 02:53:30;;;;;;;1.97;0.87;;;;;;;;;;4406326;29;20040;-71
2022/05/12 02:55:41;;;;;;;1.03;0.67;;;;;;;;;;4409368;29;20063;-71
2022/05/12 02:57:51;;;;;;;1.83;0.70;;;;;;;;;;4406838;29;20040;-71
2022/05/12 03:00:06;;;;;;;0.60;0.57;;;;;;;;;;4412398;29;34398;-71
2022/05/12 03:02:18;;;;;;;1.23;0.70;;;;;;;;;;4405968;29;20079;-71
2022/05/12 03:04:28;;;;;;;1.88;0.73;;;;;;;;;;4405913;28;20044;-71
2022/05/12 03:06:39;;;;;;;2.30;0.73;;;;;;;;;;4404882;29;20032;-71
2022/05/12 03:08:49;;;;;;;1.60;0.50;;;;;;;;;;4405829;29;20064;-71
2022/05/12 03:11:00;;;;;;;1.50;0.70;;;;;;;;;;4405321;28;20686;-71
2022/05/12 03:13:10;;;;;;;2.07;0.70;;;;;;;;;;4404749;29;20043;-71
2022/05/12 03:15:29;;;;;;;2.63;0.80;;;;;;;;;;4405822;29;20131;-71
2022/05/12 03:17:40;;;;;;;1.63;0.70;;;;;;;;;;4404963;29;20084;-70
2022/05/12 03:19:50;;;;;;;1.47;0.70;;;;;;;;;;4406830;29;20509;-71
2022/05/12 03:22:00;;;;;;;1.47;0.60;;;;;;;;;;4408055;28;20053;-71
2022/05/12 03:24:11;;;;;;;1.67;0.67;;;;;;;;;;4405839;28;35035;-71
2022/05/12 03:26:22;;;;;;;2.67;0.90;;;;;;;;;;4411747;29;20036;-72
2022/05/12 03:28:33;;;;;;;1.40;0.80;;;;;;;;;;4406871;29;20040;-72
2022/05/12 03:30:43;;;;;;;0.95;0.70;;;;;;;;;;4404875;29;20116;-71
2022/05/12 03:32:54;;;;;;;1.77;0.77;;;;;;;;;;4406586;29;20112;-71
2022/05/12 03:35:05;;;;;;;1.57;0.60;;;;;;;;;;4406510;29;20104;-71
2022/05/12 03:37:16;;;;;;;2.92;0.80;;;;;;;;;;4404480;29;20153;-72
2022/05/12 03:39:26;;;;;;;0.80;0.57;;;;;;;;;;4405117;28;20490;-72
2022/05/12 03:41:37;;;;;;;1.57;0.73;;;;;;;;;;4406355;28;20044;-72
2022/05/12 03:46:23;;;;;;;0.98;0.60;;;;;;;;;;4405647;29;20036;-71
2022/05/12 03:48:35;;;;;;;2.88;0.88;;;;;;;;;;4405900;28;20041;-72
2022/05/12 03:50:45;;;;;;;1.58;0.73;;;;;;;;;;4405450;29;20647;-71
2022/05/12 03:52:56;;;;;;;2.40;0.80;;;;;;;;;;4403769;29;36831;-71
2022/05/12 03:55:08;;;;;;;1.88;0.70;;;;;;;;;;4412990;29;20040;-71
2022/05/12 03:57:21;;;;;;;1.45;0.80;;;;;;;;;;4407255;29;20040;-72
2022/05/12 03:59:31;;;;;;;2.00;0.80;;;;;;;;;;4406932;28;20556;-71
2022/05/12 04:01:41;;;;;;;2.63;0.80;;;;;;;;;;4405417;29;20517;-72
2022/05/12 04:03:52;;;;;;;1.53;0.70;;;;;;;;;;4406427;29;20036;-71
2022/05/12 04:06:04;;;;;;;2.23;0.67;;;;;;;;;;4403230;29;20502;-72
2022/05/12 04:08:15;;;;;;;1.88;0.70;;;;;;;;;;4404522;28;20036;-72
2022/05/12 04:10:26;;;;;;;1.40;0.60;;;;;;;;;;4403904;29;20573;-72
2022/05/12 04:12:36;;;;;;;2.83;0.63;;;;;;;;;;4404952;28;20025;-72
2022/05/12 04:14:47;;;;;;;1.23;0.57;;;;;;;;;;4404400;29;20040;-72
2022/05/12 04:16:59;;;;;;;1.63;0.63;;;;;;;;;;4404955;29;20109;-72
2022/05/12 04:19:09;;;;;;;1.85;0.80;;;;;;;;;;4398457;29;20135;-71
2022/05/12 04:21:20;;;;;;;2.70;0.77;;;;;;;;;;4404362;29;20036;-72
2022/05/12 04:23:30;;;;;;;2.43;0.70;;;;;;;;;;4403268;29;20099;-72
2022/05/12 04:25:41;;;;;;;1.30;0.40;;;;;;;;;;4403534;29;26111;-72
2022/05/12 04:27:51;;;;;;;2.33;0.80;;;;;;;;;;4403894;29;20782;-72
2022/05/12 04:30:03;;;;;;;2.43;0.90;;;;;;;;;;4404986;29;20485;-72
2022/05/12 04:32:14;;;;;;;1.08;0.80;;;;;;;;;;4390164;29;20148;-72
2022/05/12 04:36:53;;;;;;;1.00;0.60;;;;;;;;;;4403982;29;21281;-72
2022/05/12 04:39:04;;;;;;;1.63;0.80;;;;;;;;;;4401959;29;20052;-71
2022/05/12 04:41:16;;;;;;;3.27;0.90;;;;;;;;;;4404012;29;20306;-72
2022/05/12 04:43:27;;;;;;;;;;;;;;;;;;4405773;28;20028;-71
2022/05/12 04:45:37;;;;;;;2.50;0.93;;;;;;;;;;4403858;28;19958;-72
2022/05/12 04:47:48;;;;;;;2.20;0.80;;;;;;;;;;4412810;29;20160;-72
2022/05/12 04:49:59;;;;;;;4.22;1.30;;;;;;;;;;4408298;28;20785;-72
2022/05/12 04:52:09;;;;;;;1.67;0.70;;;;;;;;;;4402632;29;20150;-72
2022/05/12 04:54:21;;;;;;;1.37;0.80;;;;;;;;;;4398762;29;20051;-71
2022/05/12 04:56:32;;;;;;;1.73;0.93;;;;;;;;;;4402523;29;20160;-72
2022/05/12 04:58:42;;;;;;;2.60;0.80;;;;;;;;;;4403728;28;20115;-72
2022/05/12 05:00:53;;;;;;;2.13;0.70;;;;;;;;;;4405095;29;20044;-72
2022/05/12 05:03:04;;;;;;;2.60;0.90;;;;;;;;;;4408072;28;20599;-72
2022/05/12 05:05:15;;;;;;;2.28;0.80;;;;;;;;;;4401948;29;20047;-72
2022/05/12 05:07:26;;;;;;;3.25;0.75;;;;;;;;;;4404378;28;20035;-72
2022/05/12 05:09:37;;;;;;;2.13;0.70;;;;;;;;;;4404421;29;20685;-72
2022/05/12 05:11:48;;;;;;;2.35;0.75;;;;;;;;;;4403359;29;20087;-72
2022/05/12 05:13:58;;;;;;;1.40;0.73;;;;;;;;;;4403272;29;20067;-72
2022/05/12 05:16:09;;;;;;;2.00;0.60;;;;;;;;;;4404092;28;20037;-73
2022/05/12 05:18:20;;;;;;;2.53;0.80;;;;;;;;;;4403617;29;20055;-72
2022/05/12 05:20:31;;;;;;;1.55;0.77;;;;;;;;;;4383446;29;20041;-72
2022/05/12 05:22:42;;;;;;;2.97;0.73;;;;;;;;;;4404380;29;20051;-72
2022/05/12 05:24:52;;;;;;;1.40;0.73;;;;;;;;;;4403531;29;20109;-72
2022/05/12 05:27:03;;;;;;;2.80;0.80;;;;;;;;;;4405779;29;20037;-72
2022/05/12 05:29:13;;;;;;;1.65;0.80;;;;;;;;;;4404860;29;20413;-73
2022/05/12 05:31:24;;;;;;;1.27;0.70;;;;;;;;;;4404370;29;20037;-73
2022/05/12 05:33:34;;;;;;;1.43;0.73;;;;;;;;;;4404093;29;26605;-72
2022/05/12 05:35:45;;;;;;;2.20;0.80;;;;;;;;;;4403700;29;21047;-72
2022/05/12 05:37:56;;;;;;;1.30;0.80;;;;;;;;;;4403377;29;20044;-73
2022/05/12 05:40:07;;;;;;;2.25;0.80;;;;;;;;;;4411223;29;20044;-72
2022/05/12 05:42:19;;;;;;;1.95;0.77;;;;;;;;;;4402133;29;20044;-73
2022/05/12 05:44:32;;;;;;;1.17;0.55;;;;;;;;;;4405235;28;20051;-73
2022/05/12 05:46:42;;;;;;;2.75;0.90;;;;;;;;;;4404331;29;20040;-72
2022/05/12 05:48:53;;;;;;;1.63;0.63;;;;;;;;;;4403327;29;20024;-72
2022/05/12 05:53:36;;;;;;;2.38;1.00;;;;;;;;;;4403276;29;20092;-72
2022/05/12 05:55:47;;;;;;;1.27;0.52;;;;;;;;;;4405284;29;20249;-73
2022/05/12 05:57:59;;;;;;;2.10;0.80;;;;;;;;;;4403872;28;20033;-72
2022/05/12 06:00:12;;;;;;;1.63;0.70;;;;;;;;;;4404115;28;20047;-73
2022/05/12 06:02:22;;;;;;;1.65;0.70;;;;;;;;;;4402739;29;20041;-72
2022/05/12 06:04:32;;;;;;;1.67;0.73;;;;;;;;;;4402250;29;20044;-72
2022/05/12 06:06:44;;;;;;;2.10;0.70;;;;;;;;;;4404981;29;33973;-73
2022/05/12 06:08:55;;;;;;;1.95;0.80;;;;;;;;;;4403455;29;20104;-73
2022/05/12 06:11:05;;;;;;;1.20;0.70;;;;;;;;;;4404397;29;20129;-72
2022/05/12 06:13:16;;;;;;;1.63;0.70;;;;;;;;;;4404454;29;20550;-72
2022/05/12 06:15:27;;;;;;;1.58;0.70;;;;;;;;;;4403853;29;20513;-73
2022/05/12 06:17:37;;;;;;;1.40;0.70;;;;;;;;;;4403151;29;20040;-72
2022/05/12 06:19:50;;;;;;;1.30;0.70;;;;;;;;;;4402443;29;20553;-72
2022/05/12 06:22:01;;;;;;;2.55;0.90;;;;;;;;;;4403070;29;20049;-72
2022/05/12 06:24:11;;;;;;;0.80;0.60;;;;;;;;;;4406840;29;20040;-73
2022/05/12 06:26:23;;;;;;;1.80;0.80;;;;;;;;;;4401121;29;36183;-73
2022/05/12 06:28:33;;;;;;;1.67;0.73;;;;;;;;;;4390984;29;20084;-72
2022/05/12 06:30:45;;;;;;;1.13;0.63;;;;;;;;;;4395100;29;20550;-72
2022/05/12 06:32:56;;;;;;;1.95;0.80;;;;;;;;;;4403617;28;20047;-70
2022/05/12 06:35:09;;;;;;;1.10;0.65;;;;;;;;;;4410508;29;20570;-72
2022/05/12 06:37:20;;;;;;;1.27;0.68;;;;;;;;;;4417123;28;20088;-72
2022/05/12 06:39:30;;;;;;;2.60;0.60;;;;;;;;;;4403165;29;20097;-72
2022/05/12 06:41:42;;;;;;;1.90;0.70;;;;;;;;;;4403005;29;21060;-72
2022/05/12 06:43:53;;;;;;;;;;;;;;;;;;4404844;29;20368;-72
2022/05/12 06:46:09;;;;;;;2.20;0.73;;;;;;;;;;4403672;29;20177;-76
2022/05/12 06:48:20;;;;;;;1.58;0.80;;;;;;;;;;4402477;29;20087;-74
2022/05/12 06:50:32;;;;;;;2.58;1.02;;;;;;;;;;4404204;29;20047;-74
2022/05/12 06:52:43;;;;;;;1.38;0.68;;;;;;;;;;4400436;29;20037;-71
2022/05/12 06:54:53;;;;;;;2.75;0.77;;;;;;;;;;4401160;29;20064;-72
2022/05/12 06:57:05;;;;;;;2.47;0.80;;;;;;;;;;4403016;29;20656;-71
2022/05/12 06:59:15;;;;;;;2.45;0.85;;;;;;;;;;4418202;28;20035;-71
2022/05/12 07:01:27;;;;;;;3.20;0.97;;;;;;;;;;4402941;28;20485;-72
2022/05/12 07:03:38;;;;;;;2.00;0.70;;;;;;;;;;4402635;29;20139;-71
2022/05/12 07:05:48;;;;;;;1.17;0.70;;;;;;;;;;4403235;29;20569;-72
2022/05/12 07:07:59;;;;;;;2.03;0.80;;;;;;;;;;4404386;29;20075;-72
2022/05/12 07:10:10;;;;;;;1.60;0.90;;;;;;;;;;4402909;28;20103;-72
2022/05/12 07:12:22;;;;;;;2.33;0.88;;;;;;;;;;4402060;29;20033;-72
2022/05/12 07:14:33;;;;;;;2.38;0.93;;;;;;;;;;4404629;29;20139;-72
2022/05/12 07:16:44;;;;;;;1.93;0.80;;;;;;;;;;4405817;29;20048;-73
2022/05/12 07:18:54;;;;;;;;;;;;;;;;;;4405831;29;20040;-73
2022/05/12 07:28:35;;;;;;;3.13;0.82;;;;;;;;;;4406642;29;20140;-73
2022/05/12 07:31:01;;;;;;;2.78;1.15;;;;;;;;;;4404388;29;20044;-73
2022/05/12 07:33:11;;;;;;;1.75;0.90;;;;;;;;;;4413298;28;20039;-73
2022/05/12 07:35:22;;;;;;;1.70;0.87;;;;;;;;;;4405718;29;20615;-74
2022/05/12 07:37:32;;;;;;;1.37;0.83;;;;;;;;;;4405062;28;20803;-74
2022/05/12 07:39:43;;;;;;;1.10;0.70;;;;;;;;;;4405924;28;20068;-74
2022/05/12 07:41:55;;;;;;;3.10;1.10;;;;;;;;;;4403452;28;25422;-73
2022/05/12 07:44:05;;;;;;;1.67;0.85;;;;;;;;;;4406676;29;20040;-74
2022/05/12 07:46:18;;;;;;;2.27;1.00;;;;;;;;;;4403352;29;20067;-74
2022/05/12 07:48:29;;;;;;;3.50;1.20;;;;;;;;;;4403841;29;20151;-74
2022/05/12 07:50:39;;;;;;;2.33;1.20;;;;;;;;;;4407619;29;27059;-74
2022/05/12 07:52:50;;;;;;;1.77;1.00;;;;;;;;;;4404404;29;20037;-74
2022/05/12 07:55:00;;;;;;;2.50;0.93;;;;;;;;;;4404116;28;20033;-73
2022/05/12 07:57:11;;;;;;;2.33;0.90;;;;;;;;;;4405184;29;20032;-73
2022/05/12 07:59:21;;;;;;;3.07;1.00;;;;;;;;;;4404984;29;20048;-73
2022/05/12 08:01:32;;;;;;;1.93;0.97;;;;;;;;;;4404447;29;20485;-73
2022/05/12 08:03:44;;;;;;;3.07;1.00;;;;;;;;;;4405250;29;20096;-73
2022/05/12 08:05:54;;;;;;;3.50;0.90;;;;;;;;;;4405285;28;20549;-74
2022/05/12 08:08:06;;;;;;;2.63;1.00;;;;;;;;;;4404729;29;20032;-74
2022/05/12 08:10:17;;;;;;;2.38;1.23;;;;;;;;;;4405476;28;20117;-73
2022/05/12 08:12:28;;;;;;;1.77;0.88;;;;;;;;;;4405604;29;20122;-74
2022/05/12 08:14:38;;;;;;;1.75;0.80;;;;;;;;;;4412009;29;20036;-74
2022/05/12 08:16:49;;;;;;;2.00;0.90;;;;;;;;;;4405327;29;20051;-74
2022/05/12 08:18:59;;;;;;;1.90;0.90;;;;;;;;;;4404907;28;20093;-74
2022/05/12 08:21:10;;;;;;;1.23;0.80;;;;;;;;;;4403475;29;20036;-74
2022/05/12 08:23:21;;;;;;;1.07;0.97;;;;;;;;;;4404846;29;20048;-74
2022/05/12 08:25:32;;;;;;;2.17;1.00;;;;;;;;;;4403313;29;20039;-74
2022/05/12 08:27:42;;;;;;;2.00;0.90;;;;;;;;;;4405232;29;20077;-74
2022/05/12 08:29:53;;;;;;;1.57;0.90;;;;;;;;;;4406357;29;20259;-74
2022/05/12 08:32:03;;;;;;;1.77;0.97;;;;;;;;;;4404917;29;20044;-74
2022/05/12 08:34:14;;;;;;;1.30;0.97;;;;;;;;;;4403573;28;20040;-74
2022/05/12 08:36:25;;;;;;;2.00;0.90;;;;;;;;;;4395821;29;20442;-74
2022/05/12 08:38:40;;;;;;;2.15;0.88;;;;;;;;;;4402929;29;20070;-74
2022/05/12 08:41:07;;;;;;;3.00;1.13;;;;;;;;;;4389315;29;20051;-74
2022/05/12 08:43:39;;;;;;;2.50;1.00;;;;;;;;;;4405669;29;20051;-74
2022/05/12 08:45:50;;;;;;;2.45;1.00;;;;;;;;;;4404189;28;20036;-74
2022/05/12 08:48:01;;;;;;;1.88;1.10;;;;;;;;;;4404003;29;20032;-74
2022/05/12 08:50:26;;;;;;;1.57;1.00;;;;;;;;;;4404705;28;20044;-75
2022/05/12 08:52:48;;;;;;;1.98;1.10;;;;;;;;;;4403512;29;20078;-74
2022/05/12 08:55:18;;;;;;;2.10;1.08;;;;;;;;;;4391965;29;20205;-74
2022/05/12 08:57:32;;;;;;;2.97;1.20;;;;;;;;;;4403017;28;20103;-75
2022/05/12 08:59:42;;;;;;;1.23;0.98;;;;;;;;;;4403132;29;20036;-74
2022/05/12 09:01:55;;;;;;;1.93;1.00;;;;;;;;;;4405496;29;20052;-72
2022/05/12 09:04:30;;;;;;;2.20;1.05;;;;;;;;;;4397876;29;20048;-74
2022/05/12 09:07:18;;;;;;;1.17;1.00;;;;;;;;;;4403220;29;20145;-75
2022/05/12 09:09:36;;;;;;;1.85;0.93;;;;;;;;;;4404239;29;20036;-74
2022/05/12 09:11:59;;;;;;;2.05;1.02;;;;;;;;;;4395196;29;20165;-74
2022/05/12 09:14:35;;;;;;;2.30;1.00;;;;;;;;;;4411754;29;20051;-75
2022/05/12 09:16:51;;;;;;;1.58;1.05;;;;;;;;;;4385637;29;20619;-74
2022/05/12 09:19:02;;;;;;;1.25;1.08;;;;;;;;;;4396083;29;20060;-74
2022/05/12 09:21:15;;;;;;;1.80;1.13;;;;;;;;;;4403133;29;20405;-74
2022/05/12 09:23:26;;;;;;;3.35;1.20;;;;;;;;;;4394502;29;20267;-74
2022/05/12 09:25:43;;;;;;;2.10;1.13;;;;;;;;;;4403294;29;20045;-74
2022/05/12 09:27:53;;;;;;;2.50;1.08;;;;;;;;;;4402222;29;20517;-74
2022/05/12 09:30:06;;;;;;;2.10;1.10;;;;;;;;;;4404872;29;20039;-74
2022/05/12 09:32:26;;;;;;;2.13;1.13;;;;;;;;;;4400412;29;20041;-74
2022/05/12 09:34:46;;;;;;;2.85;1.20;;;;;;;;;;4402194;29;20129;-74
2022/05/12 09:37:16;;;;;;;1.30;1.02;;;;;;;;;;4404256;29;21018;-74
2022/05/12 09:39:35;;;;;;;1.30;1.10;;;;;;;;;;4405251;29;20039;-74
2022/05/12 09:41:46;;;;;;;2.33;1.10;;;;;;;;;;4388327;29;20604;-74
2022/05/12 09:43:57;;;;;;;2.38;1.25;;;;;;;;;;4403162;29;20657;-75
2022/05/12 09:46:23;;;;;;;2.30;0.90;;;;;;;;;;4404889;29;20033;-75
2022/05/12 09:48:38;;;;;;;2.47;1.20;;;;;;;;;;4404687;29;20048;-75
2022/05/12 09:50:50;;;;;;;1.73;1.23;;;;;;;;;;4411633;29;20042;-75
2022/05/12 09:53:03;;;;;;;3.20;1.17;;;;;;;;;;4403864;28;20036;-74
2022/05/12 09:55:24;;;;;;;2.45;1.13;;;;;;;;;;4402659;29;20365;-75
2022/05/12 09:57:35;;;;;;;1.80;1.02;;;;;;;;;;4418390;28;20043;-74
2022/05/12 09:59:57;;;;;;;1.95;1.23;;;;;;;;;;4402063;28;20804;-75
2022/05/12 10:08:01;;;;;;;2.55;1.40;;;;;;;;;;4403777;29;20051;-74
2022/05/12 10:10:24;;;;;;;2.20;1.30;;;;;;;;;;4419383;28;20068;-75
2022/05/12 10:12:40;;;;;;;2.05;1.35;;;;;;;;;;4402713;29;20357;-74
2022/05/12 10:14:59;;;;;;;3.95;1.40;;;;;;;;;;4411329;29;21211;-74
2022/05/12 10:17:23;;;;;;;1.40;1.08;;;;;;;;;;4388554;29;20139;-74
2022/05/12 10:19:36;;;;;;;1.80;1.00;;;;;;;;;;4405516;28;20056;-74
2022/05/12 10:21:54;;;;;;;2.38;1.27;;;;;;;;;;4404045;29;20041;-74
2022/05/12 10:24:23;;;;;;;1.73;1.30;;;;;;;;;;4411442;29;20038;-75
2022/05/12 10:26:35;;;;;;;1.27;1.13;;;;;;;;;;4402203;29;21034;-75
2022/05/12 10:28:52;;;;;;;1.80;1.20;;;;;;;;;;4404607;29;20028;-75
2022/05/12 10:31:24;;;;;;;1.42;1.10;;;;;;;;;;4411192;29;20043;-75
2022/05/12 10:34:22;;;;;;;1.60;1.00;;;;;;;;;;4403686;29;20042;-75
2022/05/12 10:36:38;;;;;;;2.47;1.00;;;;;;;;;;4368457;29;20395;-75
2022/05/12 10:39:12;;;;;;;2.97;1.17;;;;;;;;;;4404081;29;20067;-75
2022/05/12 10:41:29;;;;;;;1.60;0.88;;;;;;;;;;4402658;29;20047;-74
2022/05/12 10:44:01;;;;;;;3.42;1.00;;;;;;;;;;4401572;29;20040;-74
2022/05/12 10:46:21;;;;;;;2.50;0.88;;;;;;;;;;4402973;29;20052;-75
2022/05/12 10:49:04;;;;;;;2.03;1.08;;;;;;;;;;4402962;29;20044;-75
2022/05/12 10:51:24;;;;;;;1.63;0.90;;;;;;;;;;4394616;28;20051;-75
2022/05/12 10:53:58;;;;;;;1.45;0.90;;;;;;;;;;4405529;29;20040;-75
2022/05/12 10:56:27;;;;;;;1.95;0.98;;;;;;;;;;4412385;29;20032;-76
2022/05/12 10:59:11;;;;;;;1.40;1.00;;;;;;;;;;4407870;29;20039;-75
2022/05/12 11:01:32;;;;;;;2.40;1.00;;;;;;;;;;4405266;29;20946;-74
2022/05/12 11:03:50;;;;;;;1.48;0.93;;;;;;;;;;4414290;29;21479;-75
2022/05/12 11:06:05;;;;;;;2.80;1.08;;;;;;;;;;4404209;29;20044;-75
2022/05/12 11:08:25;;;;;;;1.77;0.80;;;;;;;;;;4421001;28;20606;-75
2022/05/12 11:10:41;;;;;;;1.63;1.00;;;;;;;;;;4405858;29;20041;-74
2022/05/12 11:12:56;;;;;;;2.35;1.00;;;;;;;;;;4406229;29;20049;-75
2022/05/12 11:15:24;;;;;;;1.67;1.08;;;;;;;;;;4407719;29;20476;-75
2022/05/12 11:17:50;;;;;;;1.52;1.00;;;;;;;;;;4403869;29;20508;-75
2022/05/12 11:20:25;;;;;;;2.35;1.10;;;;;;;;;;4403465;29;20039;-75
2022/05/12 11:22:47;;;;;;;1.70;0.90;;;;;;;;;;4406117;29;20121;-75
2022/05/12 11:25:13;;;;;;;1.77;0.90;;;;;;;;;;4406352;29;20040;-75
2022/05/12 11:27:33;;;;;;;1.80;0.88;;;;;;;;;;4412488;29;20067;-74
2022/05/12 11:30:37;;;;;;;2.33;1.20;;;;;;;;;;4393314;29;20044;-75
2022/05/12 11:32:51;;;;;;;3.25;1.20;;;;;;;;;;4395154;29;20819;-75
2022/05/12 11:35:07;;;;;;;2.90;0.90;;;;;;;;;;4400278;28;20771;-76
2022/05/12 11:37:38;;;;;;;2.05;0.98;;;;;;;;;;4387911;29;20037;-75
2022/05/12 11:39:54;;;;;;;1.65;1.00;;;;;;;;;;4407348;28;20043;-74
2022/05/12 11:42:20;;;;;;;1.42;1.02;;;;;;;;;;4391479;29;20731;-74
2022/05/12 11:44:34;;;;;;;1.70;0.95;;;;;;;;;;4406400;29;20036;-75
2022/05/12 11:46:57;;;;;;;2.72;1.10;;;;;;;;;;4412568;29;20135;-75
2022/05/12 11:49:49;;;;;;;2.88;1.02;;;;;;;;;;4406675;29;20044;-74
2022/05/12 11:52:37;;;;;;;2.05;0.88;;;;;;;;;;4419774;28;20142;-74
2022/05/12 11:54:50;;;;;;;1.95;1.00;;;;;;;;;;4405093;29;20040;-74
2022/05/12 11:57:03;;;;;;;3.08;1.00;;;;;;;;;;4395992;29;20135;-74
2022/05/12 11:59:26;;;;;;;2.65;0.98;;;;;;;;;;4405430;29;20205;-74
2022/05/12 12:01:36;;;;;;;3.42;1.30;;;;;;;;;;4403731;29;20075;-74
2022/05/12 12:03:59;;;;;;;2.07;1.00;;;;;;;;;;4405874;29;20052;-74
2022/05/12 12:06:10;;;;;;;3.00;1.00;;;;;;;;;;4405013;29;20614;-74
2022/05/12 12:08:29;;;;;;;2.33;1.10;;;;;;;;;;4405708;29;20127;-75
2022/05/12 12:10:41;;;;;;;2.72;1.00;;;;;;;;;;4403541;29;20108;-75
2022/05/12 12:13:00;;;;;;;1.67;1.00;;;;;;;;;;4405929;29;20032;-75
2022/05/12 12:15:10;;;;;;;2.00;1.05;;;;;;;;;;4404353;29;20457;-75
2022/05/12 12:17:38;;;;;;;3.70;1.20;;;;;;;;;;4405831;29;20040;-74
2022/05/12 12:19:49;;;;;;;1.67;0.90;;;;;;;;;;4418364;28;20044;-74
2022/05/12 12:22:25;;;;;;;1.83;1.10;;;;;;;;;;4416544;28;20074;-75
2022/05/12 12:24:41;;;;;;;4.38;1.23;;;;;;;;;;4403845;29;20578;-75
2022/05/12 12:26:55;;;;;;;2.13;1.10;;;;;;;;;;4391243;29;20037;-75
2022/05/12 12:29:08;;;;;;;2.10;1.30;;;;;;;;;;4395299;29;20131;-75
2022/05/12 12:31:25;;;;;;;3.55;1.17;;;;;;;;;;4405127;29;20043;-75
2022/05/12 12:33:39;;;;;;;2.38;1.20;;;;;;;;;;4405253;29;20040;-75
2022/05/12 12:35:55;;;;;;;2.97;1.25;;;;;;;;;;4407203;28;20115;-75
2022/05/12 12:38:05;;;;;;;2.15;1.08;;;;;;;;;;4403810;29;20051;-75
2022/05/12 12:40:28;;;;;;;2.77;1.27;;;;;;;;;;4404617;29;20474;-76
2022/05/12 12:42:44;;;;;;;1.63;1.10;;;;;;;;;;4404483;29;20084;-75
2022/05/12 12:44:59;;;;;;;2.03;1.00;;;;;;;;;;4404709;29;20047;-75
2022/05/12 12:47:55;;;;;;;1.13;0.93;;;;;;;;;;4403801;28;21035;-75
2022/05/12 12:50:18;;;;;;;3.28;1.02;;;;;;;;;;4376251;29;20669;-74
2022/05/12 12:52:29;;;;;;;2.22;1.10;;;;;;;;;;4412021;29;20083;-75
2022/05/12 12:57:21;;;;;;;2.80;1.23;;;;;;;;;;4403219;29;20049;-74
2022/05/12 12:59:33;;;;;;;2.28;1.20;;;;;;;;;;4411777;29;20139;-75
2022/05/12 13:01:51;;;;;;;1.77;1.10;;;;;;;;;;4403673;29;20840;-74
2022/05/12 13:04:02;;;;;;;2.60;1.30;;;;;;;;;;4405069;29;20152;-75
2022/05/12 13:06:30;;;;;;;2.40;1.20;;;;;;;;;;4406269;28;20055;-75
2022/05/12 13:08:41;;;;;;;3.55;1.20;;;;;;;;;;4407328;28;20041;-75
2022/05/12 13:10:57;;;;;;;1.58;1.02;;;;;;;;;;4402532;29;20036;-75
2022/05/12 13:13:07;;;;;;;2.35;1.40;;;;;;;;;;4405122;28;20150;-75
2022/05/12 13:15:20;;;;;;;1.83;1.27;;;;;;;;;;4406273;28;20044;-75
2022/05/12 13:17:36;;;;;;;2.78;1.50;;;;;;;;;;4402914;29;20044;-75
2022/05/12 13:19:46;;;;;;;3.22;1.45;;;;;;;;;;4403388;29;21001;-75
2022/05/12 13:21:57;;;;;;;1.73;1.00;;;;;;;;;;4404436;29;20075;-75
2022/05/12 13:24:19;;;;;;;1.37;1.00;;;;;;;;;;4405989;28;20036;-75
2022/05/12 13:26:31;;;;;;;1.73;1.10;;;;;;;;;;4402022;29;20084;-76
2022/05/12 13:28:42;;;;;;;2.70;1.40;;;;;;;;;;4402956;29;20128;-75
2022/05/12 13:31:15;;;;;;;2.85;1.40;;;;;;;;;;4403955;29;20041;-75
2022/05/12 13:33:27;;;;;;;3.45;1.23;;;;;;;;;;4402942;29;20873;-75
2022/05/12 13:35:39;;;;;;;2.08;1.20;;;;;;;;;;4403582;29;20044;-75
2022/05/12 13:38:00;;;;;;;1.83;1.10;;;;;;;;;;4403529;29;20685;-75
2022/05/12 13:40:12;;;;;;;2.15;1.10;;;;;;;;;;4403260;29;20146;-74
2022/05/12 13:42:44;;;;;;;2.22;1.17;;;;;;;;;;4402927;29;20055;-75
2022/05/12 13:44:55;;;;;;;;;;;;;;;;;;4403565;29;20134;-75
2022/05/12 13:47:06;;;;;;;3.17;1.42;;;;;;;;;;4401516;29;20030;-75
2022/05/12 13:49:27;;;;;;;2.08;1.27;;;;;;;;;;4403567;29;20493;-75